sensor_id;sensor_type;location;lat;lon;timestamp;P1;durP1;ratioP1;P2;durP2;ratioP2
16979;SDS011;42288;52.182;21.156;2023-11-21T00:00:49;36.07;;;18.50;;
16979;SDS011;42288;52.182;21.156;2023-11-21T00:03:14;26.40;;;15.60;;
16979;SDS011;42288;52.182;21.156;2023-11-21T00:05:40;32.53;;;17.57;;
16979;SDS011;42288;52.182;21.156;2023-11-21T00:08:06;36.23;;;18.83;;
16979;SDS011;42288;52.182;21.156;2023-11-21T00:10:33;35.87;;;19.70;;
16979;SDS011;42288;52.182;21.156;2023-11-21T00:12:59;34.50;;;17.27;;
16979;SDS011;42288;52.182;21.156;2023-11-21T00:15:27;34.73;;;17.77;;
16979;SDS011;42288;52.182;21.156;2023-11-21T00:17:53;36.33;;;18.87;;
16979;SDS011;42288;52.182;21.156;2023-11-21T00:20:18;31.70;;;17.30;;
16979;SDS011;42288;52.182;21.156;2023-11-21T00:22:45;37.77;;;20.20;;
16979;SDS011;42288;52.182;21.156;2023-11-21T00:25:11;34.90;;;17.50;;
16979;SDS011;42288;52.182;21.156;2023-11-21T00:27:39;36.60;;;17.33;;
16979;SDS011;42288;52.182;21.156;2023-11-21T00:30:05;36.80;;;18.57;;
16979;SDS011;42288;52.182;21.156;2023-11-21T00:32:31;33.63;;;17.03;;
16979;SDS011;42288;52.182;21.156;2023-11-21T00:34:57;33.90;;;17.70;;
16979;SDS011;42288;52.182;21.156;2023-11-21T00:37:22;34.93;;;17.70;;
16979;SDS011;42288;52.182;21.156;2023-11-21T00:39:49;32.47;;;16.53;;
16979;SDS011;42288;52.182;21.156;2023-11-21T00:42:14;34.47;;;17.40;;
16979;SDS011;42288;52.182;21.156;2023-11-21T00:44:40;39.50;;;19.00;;
16979;SDS011;42288;52.182;21.156;2023-11-21T00:47:05;38.23;;;19.20;;
16979;SDS011;42288;52.182;21.156;2023-11-21T00:49:33;35.50;;;18.03;;
16979;SDS011;42288;52.182;21.156;2023-11-21T00:51:58;34.80;;;18.77;;
16979;SDS011;42288;52.182;21.156;2023-11-21T00:54:24;31.60;;;16.80;;
16979;SDS011;42288;52.182;21.156;2023-11-21T00:56:49;34.30;;;18.17;;
16979;SDS011;42288;52.182;21.156;2023-11-21T00:59:15;27.00;;;15.87;;
16979;SDS011;42288;52.182;21.156;2023-11-21T01:01:42;36.77;;;18.53;;
16979;SDS011;42288;52.182;21.156;2023-11-21T01:04:07;37.73;;;18.77;;
16979;SDS011;42288;52.182;21.156;2023-11-21T01:06:33;35.23;;;17.83;;
16979;SDS011;42288;52.182;21.156;2023-11-21T01:08:59;33.73;;;17.23;;
16979;SDS011;42288;52.182;21.156;2023-11-21T01:11:24;37.10;;;17.23;;
16979;SDS011;42288;52.182;21.156;2023-11-21T01:13:51;33.20;;;16.83;;
16979;SDS011;42288;52.182;21.156;2023-11-21T01:16:18;33.00;;;18.03;;
16979;SDS011;42288;52.182;21.156;2023-11-21T01:18:44;33.27;;;17.73;;
16979;SDS011;42288;52.182;21.156;2023-11-21T01:21:09;34.30;;;18.17;;
16979;SDS011;42288;52.182;21.156;2023-11-21T01:23:35;35.37;;;18.77;;
16979;SDS011;42288;52.182;21.156;2023-11-21T01:26:01;35.93;;;19.33;;
16979;SDS011;42288;52.182;21.156;2023-11-21T01:28:27;38.40;;;18.23;;
16979;SDS011;42288;52.182;21.156;2023-11-21T01:30:52;31.67;;;17.07;;
16979;SDS011;42288;52.182;21.156;2023-11-21T01:33:21;36.13;;;18.13;;
16979;SDS011;42288;52.182;21.156;2023-11-21T01:35:49;33.70;;;18.80;;
16979;SDS011;42288;52.182;21.156;2023-11-21T01:38:15;36.77;;;19.30;;
16979;SDS011;42288;52.182;21.156;2023-11-21T01:40:42;36.60;;;17.37;;
16979;SDS011;42288;52.182;21.156;2023-11-21T01:43:08;35.93;;;18.90;;
16979;SDS011;42288;52.182;21.156;2023-11-21T01:45:33;34.83;;;16.30;;
16979;SDS011;42288;52.182;21.156;2023-11-21T01:48:00;34.20;;;17.90;;
16979;SDS011;42288;52.182;21.156;2023-11-21T01:50:27;37.43;;;17.80;;
16979;SDS011;42288;52.182;21.156;2023-11-21T01:52:54;33.10;;;17.07;;
16979;SDS011;42288;52.182;21.156;2023-11-21T01:55:20;29.80;;;15.87;;
16979;SDS011;42288;52.182;21.156;2023-11-21T01:57:46;30.83;;;16.43;;
16979;SDS011;42288;52.182;21.156;2023-11-21T02:00:13;34.87;;;16.57;;
16979;SDS011;42288;52.182;21.156;2023-11-21T02:02:45;36.90;;;18.77;;
16979;SDS011;42288;52.182;21.156;2023-11-21T02:05:12;31.23;;;17.37;;
16979;SDS011;42288;52.182;21.156;2023-11-21T02:07:40;33.63;;;17.53;;
16979;SDS011;42288;52.182;21.156;2023-11-21T02:10:12;33.83;;;18.60;;
16979;SDS011;42288;52.182;21.156;2023-11-21T02:12:42;33.20;;;17.87;;
16979;SDS011;42288;52.182;21.156;2023-11-21T02:15:12;33.47;;;16.80;;
16979;SDS011;42288;52.182;21.156;2023-11-21T02:17:44;36.97;;;17.73;;
16979;SDS011;42288;52.182;21.156;2023-11-21T02:20:17;29.80;;;16.33;;
16979;SDS011;42288;52.182;21.156;2023-11-21T02:25:25;33.07;;;17.37;;
16979;SDS011;42288;52.182;21.156;2023-11-21T02:27:57;29.87;;;16.73;;
16979;SDS011;42288;52.182;21.156;2023-11-21T02:30:24;29.87;;;16.33;;
16979;SDS011;42288;52.182;21.156;2023-11-21T02:32:52;32.40;;;17.50;;
16979;SDS011;42288;52.182;21.156;2023-11-21T02:35:18;30.60;;;16.93;;
16979;SDS011;42288;52.182;21.156;2023-11-21T02:37:48;27.33;;;15.30;;
16979;SDS011;42288;52.182;21.156;2023-11-21T02:40:14;31.73;;;15.83;;
16979;SDS011;42288;52.182;21.156;2023-11-21T02:42:49;32.83;;;16.77;;
16979;SDS011;42288;52.182;21.156;2023-11-21T02:45:18;31.43;;;16.50;;
16979;SDS011;42288;52.182;21.156;2023-11-21T02:47:49;31.93;;;16.53;;
16979;SDS011;42288;52.182;21.156;2023-11-21T02:50:15;30.63;;;16.17;;
16979;SDS011;42288;52.182;21.156;2023-11-21T02:52:41;30.87;;;16.47;;
16979;SDS011;42288;52.182;21.156;2023-11-21T02:55:07;32.93;;;15.60;;
16979;SDS011;42288;52.182;21.156;2023-11-21T02:57:33;31.30;;;16.83;;
16979;SDS011;42288;52.182;21.156;2023-11-21T02:59:59;28.03;;;15.87;;
16979;SDS011;42288;52.182;21.156;2023-11-21T03:02:25;27.83;;;14.97;;
16979;SDS011;42288;52.182;21.156;2023-11-21T03:04:51;27.83;;;15.20;;
16979;SDS011;42288;52.182;21.156;2023-11-21T03:07:17;30.93;;;16.13;;
16979;SDS011;42288;52.182;21.156;2023-11-21T03:09:46;31.47;;;15.63;;
16979;SDS011;42288;52.182;21.156;2023-11-21T03:12:12;28.27;;;16.27;;
16979;SDS011;42288;52.182;21.156;2023-11-21T03:14:39;29.33;;;15.70;;
16979;SDS011;42288;52.182;21.156;2023-11-21T03:17:05;34.37;;;16.43;;
16979;SDS011;42288;52.182;21.156;2023-11-21T03:19:31;30.67;;;15.77;;
16979;SDS011;42288;52.182;21.156;2023-11-21T03:21:57;27.23;;;14.53;;
16979;SDS011;42288;52.182;21.156;2023-11-21T03:24:22;29.83;;;16.03;;
16979;SDS011;42288;52.182;21.156;2023-11-21T03:26:48;30.47;;;14.63;;
16979;SDS011;42288;52.182;21.156;2023-11-21T03:29:15;26.00;;;14.57;;
16979;SDS011;42288;52.182;21.156;2023-11-21T03:31:41;31.80;;;15.80;;
16979;SDS011;42288;52.182;21.156;2023-11-21T03:34:09;29.47;;;15.87;;
16979;SDS011;42288;52.182;21.156;2023-11-21T03:36:39;35.07;;;16.83;;
16979;SDS011;42288;52.182;21.156;2023-11-21T03:39:05;32.57;;;16.43;;
16979;SDS011;42288;52.182;21.156;2023-11-21T03:41:31;31.03;;;16.50;;
16979;SDS011;42288;52.182;21.156;2023-11-21T03:43:57;33.90;;;16.63;;
16979;SDS011;42288;52.182;21.156;2023-11-21T03:46:22;34.43;;;17.10;;
16979;SDS011;42288;52.182;21.156;2023-11-21T03:48:48;33.67;;;15.83;;
16979;SDS011;42288;52.182;21.156;2023-11-21T03:51:14;30.77;;;15.93;;
16979;SDS011;42288;52.182;21.156;2023-11-21T03:53:39;30.90;;;16.20;;
16979;SDS011;42288;52.182;21.156;2023-11-21T03:56:05;32.37;;;15.77;;
16979;SDS011;42288;52.182;21.156;2023-11-21T03:58:31;30.63;;;16.50;;
16979;SDS011;42288;52.182;21.156;2023-11-21T04:00:56;32.57;;;15.90;;
16979;SDS011;42288;52.182;21.156;2023-11-21T04:03:22;26.80;;;15.40;;
16979;SDS011;42288;52.182;21.156;2023-11-21T04:05:48;29.97;;;15.63;;
16979;SDS011;42288;52.182;21.156;2023-11-21T04:08:13;32.30;;;14.50;;
16979;SDS011;42288;52.182;21.156;2023-11-21T04:10:39;31.53;;;15.37;;
16979;SDS011;42288;52.182;21.156;2023-11-21T04:13:07;25.93;;;13.30;;
16979;SDS011;42288;52.182;21.156;2023-11-21T04:15:32;30.50;;;14.80;;
16979;SDS011;42288;52.182;21.156;2023-11-21T04:17:58;26.00;;;13.37;;
16979;SDS011;42288;52.182;21.156;2023-11-21T04:20:24;27.70;;;13.23;;
16979;SDS011;42288;52.182;21.156;2023-11-21T04:22:50;24.37;;;13.53;;
16979;SDS011;42288;52.182;21.156;2023-11-21T04:25:15;27.47;;;14.27;;
16979;SDS011;42288;52.182;21.156;2023-11-21T04:27:42;24.00;;;12.97;;
16979;SDS011;42288;52.182;21.156;2023-11-21T04:30:10;25.03;;;13.17;;
16979;SDS011;42288;52.182;21.156;2023-11-21T04:32:36;26.10;;;13.00;;
16979;SDS011;42288;52.182;21.156;2023-11-21T04:35:04;22.77;;;12.87;;
16979;SDS011;42288;52.182;21.156;2023-11-21T04:37:30;26.50;;;13.50;;
16979;SDS011;42288;52.182;21.156;2023-11-21T04:39:55;25.53;;;14.13;;
16979;SDS011;42288;52.182;21.156;2023-11-21T04:42:21;24.10;;;13.67;;
16979;SDS011;42288;52.182;21.156;2023-11-21T04:44:47;28.77;;;14.90;;
16979;SDS011;42288;52.182;21.156;2023-11-21T04:47:13;31.67;;;15.27;;
16979;SDS011;42288;52.182;21.156;2023-11-21T04:49:41;29.33;;;14.93;;
16979;SDS011;42288;52.182;21.156;2023-11-21T04:52:08;26.80;;;13.73;;
16979;SDS011;42288;52.182;21.156;2023-11-21T04:54:35;28.97;;;14.63;;
16979;SDS011;42288;52.182;21.156;2023-11-21T04:57:01;28.03;;;14.73;;
16979;SDS011;42288;52.182;21.156;2023-11-21T04:59:27;27.20;;;14.27;;
16979;SDS011;42288;52.182;21.156;2023-11-21T05:01:53;28.60;;;15.70;;
16979;SDS011;42288;52.182;21.156;2023-11-21T05:04:19;24.80;;;13.43;;
16979;SDS011;42288;52.182;21.156;2023-11-21T05:06:47;25.13;;;14.00;;
16979;SDS011;42288;52.182;21.156;2023-11-21T05:09:13;24.20;;;13.23;;
16979;SDS011;42288;52.182;21.156;2023-11-21T05:11:38;28.87;;;13.70;;
16979;SDS011;42288;52.182;21.156;2023-11-21T05:14:05;24.13;;;13.73;;
16979;SDS011;42288;52.182;21.156;2023-11-21T05:16:31;25.83;;;13.50;;
16979;SDS011;42288;52.182;21.156;2023-11-21T05:18:57;27.03;;;13.10;;
16979;SDS011;42288;52.182;21.156;2023-11-21T05:21:25;24.87;;;13.17;;
16979;SDS011;42288;52.182;21.156;2023-11-21T05:23:52;23.63;;;13.63;;
16979;SDS011;42288;52.182;21.156;2023-11-21T05:26:17;20.03;;;11.40;;
16979;SDS011;42288;52.182;21.156;2023-11-21T05:28:44;23.40;;;12.40;;
16979;SDS011;42288;52.182;21.156;2023-11-21T05:31:10;20.73;;;11.57;;
16979;SDS011;42288;52.182;21.156;2023-11-21T05:33:36;25.00;;;13.17;;
16979;SDS011;42288;52.182;21.156;2023-11-21T05:36:02;23.53;;;12.30;;
16979;SDS011;42288;52.182;21.156;2023-11-21T05:38:28;19.53;;;11.43;;
16979;SDS011;42288;52.182;21.156;2023-11-21T05:40:54;22.07;;;12.60;;
16979;SDS011;42288;52.182;21.156;2023-11-21T05:43:20;17.60;;;9.60;;
16979;SDS011;42288;52.182;21.156;2023-11-21T05:45:45;22.03;;;11.73;;
16979;SDS011;42288;52.182;21.156;2023-11-21T05:48:11;22.27;;;11.07;;
16979;SDS011;42288;52.182;21.156;2023-11-21T05:50:37;20.20;;;11.03;;
16979;SDS011;42288;52.182;21.156;2023-11-21T05:53:03;18.03;;;10.97;;
16979;SDS011;42288;52.182;21.156;2023-11-21T05:55:29;19.27;;;10.43;;
16979;SDS011;42288;52.182;21.156;2023-11-21T05:57:54;24.53;;;12.50;;
16979;SDS011;42288;52.182;21.156;2023-11-21T06:00:20;19.87;;;11.07;;
16979;SDS011;42288;52.182;21.156;2023-11-21T06:02:50;17.67;;;10.17;;
16979;SDS011;42288;52.182;21.156;2023-11-21T06:05:20;20.17;;;10.90;;
16979;SDS011;42288;52.182;21.156;2023-11-21T06:07:51;19.57;;;9.93;;
16979;SDS011;42288;52.182;21.156;2023-11-21T06:10:19;17.40;;;10.30;;
16979;SDS011;42288;52.182;21.156;2023-11-21T06:12:46;19.87;;;9.73;;
16979;SDS011;42288;52.182;21.156;2023-11-21T06:15:12;17.87;;;9.20;;
16979;SDS011;42288;52.182;21.156;2023-11-21T06:17:40;17.50;;;9.57;;
16979;SDS011;42288;52.182;21.156;2023-11-21T06:20:08;17.93;;;9.90;;
16979;SDS011;42288;52.182;21.156;2023-11-21T06:22:37;18.53;;;10.43;;
16979;SDS011;42288;52.182;21.156;2023-11-21T06:25:10;19.67;;;9.67;;
16979;SDS011;42288;52.182;21.156;2023-11-21T06:27:39;20.57;;;10.00;;
16979;SDS011;42288;52.182;21.156;2023-11-21T06:30:13;18.87;;;9.80;;
16979;SDS011;42288;52.182;21.156;2023-11-21T06:32:40;16.70;;;10.07;;
16979;SDS011;42288;52.182;21.156;2023-11-21T06:35:07;17.70;;;9.23;;
16979;SDS011;42288;52.182;21.156;2023-11-21T06:37:35;19.47;;;10.33;;
16979;SDS011;42288;52.182;21.156;2023-11-21T06:40:01;18.60;;;9.73;;
16979;SDS011;42288;52.182;21.156;2023-11-21T06:42:29;21.87;;;10.07;;
16979;SDS011;42288;52.182;21.156;2023-11-21T06:44:55;19.40;;;10.40;;
16979;SDS011;42288;52.182;21.156;2023-11-21T06:47:22;18.90;;;9.90;;
16979;SDS011;42288;52.182;21.156;2023-11-21T06:49:52;19.37;;;10.47;;
16979;SDS011;42288;52.182;21.156;2023-11-21T06:52:18;16.60;;;9.00;;
16979;SDS011;42288;52.182;21.156;2023-11-21T06:54:44;20.80;;;10.53;;
16979;SDS011;42288;52.182;21.156;2023-11-21T06:57:12;15.30;;;9.10;;
16979;SDS011;42288;52.182;21.156;2023-11-21T06:59:38;16.63;;;9.27;;
16979;SDS011;42288;52.182;21.156;2023-11-21T07:02:04;20.50;;;10.33;;
16979;SDS011;42288;52.182;21.156;2023-11-21T07:04:36;20.93;;;10.83;;
16979;SDS011;42288;52.182;21.156;2023-11-21T07:07:04;20.13;;;10.93;;
16979;SDS011;42288;52.182;21.156;2023-11-21T07:09:32;18.37;;;10.30;;
16979;SDS011;42288;52.182;21.156;2023-11-21T07:11:57;21.50;;;12.23;;
16979;SDS011;42288;52.182;21.156;2023-11-21T07:14:23;22.30;;;10.43;;
16979;SDS011;42288;52.182;21.156;2023-11-21T07:16:49;20.27;;;11.40;;
16979;SDS011;42288;52.182;21.156;2023-11-21T07:19:14;21.13;;;11.70;;
16979;SDS011;42288;52.182;21.156;2023-11-21T07:21:40;19.00;;;10.70;;
16979;SDS011;42288;52.182;21.156;2023-11-21T07:24:06;19.60;;;11.77;;
16979;SDS011;42288;52.182;21.156;2023-11-21T07:26:33;20.30;;;10.43;;
16979;SDS011;42288;52.182;21.156;2023-11-21T07:29:00;24.47;;;12.80;;
16979;SDS011;42288;52.182;21.156;2023-11-21T07:31:27;21.37;;;12.00;;
16979;SDS011;42288;52.182;21.156;2023-11-21T07:33:54;20.13;;;11.03;;
16979;SDS011;42288;52.182;21.156;2023-11-21T07:36:22;20.37;;;10.43;;
16979;SDS011;42288;52.182;21.156;2023-11-21T07:38:48;22.27;;;12.67;;
16979;SDS011;42288;52.182;21.156;2023-11-21T07:41:15;23.80;;;12.00;;
16979;SDS011;42288;52.182;21.156;2023-11-21T07:43:42;27.83;;;13.07;;
16979;SDS011;42288;52.182;21.156;2023-11-21T07:46:08;24.33;;;13.50;;
16979;SDS011;42288;52.182;21.156;2023-11-21T07:48:34;22.63;;;12.33;;
16979;SDS011;42288;52.182;21.156;2023-11-21T07:51:00;25.47;;;13.20;;
16979;SDS011;42288;52.182;21.156;2023-11-21T07:53:28;28.70;;;13.70;;
16979;SDS011;42288;52.182;21.156;2023-11-21T07:55:55;26.80;;;12.93;;
16979;SDS011;42288;52.182;21.156;2023-11-21T07:58:21;29.27;;;13.93;;
16979;SDS011;42288;52.182;21.156;2023-11-21T08:00:47;28.53;;;13.47;;
16979;SDS011;42288;52.182;21.156;2023-11-21T08:03:14;24.43;;;12.93;;
16979;SDS011;42288;52.182;21.156;2023-11-21T08:05:39;28.57;;;14.57;;
16979;SDS011;42288;52.182;21.156;2023-11-21T08:08:05;26.50;;;12.30;;
16979;SDS011;42288;52.182;21.156;2023-11-21T08:10:31;23.90;;;11.97;;
16979;SDS011;42288;52.182;21.156;2023-11-21T08:12:56;26.07;;;12.70;;
16979;SDS011;42288;52.182;21.156;2023-11-21T08:15:23;20.47;;;11.70;;
16979;SDS011;42288;52.182;21.156;2023-11-21T08:17:49;21.33;;;11.57;;
16979;SDS011;42288;52.182;21.156;2023-11-21T08:20:14;22.50;;;12.50;;
16979;SDS011;42288;52.182;21.156;2023-11-21T08:22:43;22.80;;;11.07;;
16979;SDS011;42288;52.182;21.156;2023-11-21T08:25:10;22.40;;;12.67;;
16979;SDS011;42288;52.182;21.156;2023-11-21T08:27:36;22.37;;;10.50;;
16979;SDS011;42288;52.182;21.156;2023-11-21T08:30:05;19.03;;;10.93;;
16979;SDS011;42288;52.182;21.156;2023-11-21T08:32:32;25.30;;;13.30;;
16979;SDS011;42288;52.182;21.156;2023-11-21T08:34:58;23.53;;;11.80;;
16979;SDS011;42288;52.182;21.156;2023-11-21T08:37:24;24.57;;;12.20;;
16979;SDS011;42288;52.182;21.156;2023-11-21T08:39:52;23.50;;;12.43;;
16979;SDS011;42288;52.182;21.156;2023-11-21T08:42:18;26.50;;;13.37;;
16979;SDS011;42288;52.182;21.156;2023-11-21T08:44:44;24.77;;;12.80;;
16979;SDS011;42288;52.182;21.156;2023-11-21T08:47:09;27.10;;;14.53;;
16979;SDS011;42288;52.182;21.156;2023-11-21T08:49:35;28.07;;;13.63;;
16979;SDS011;42288;52.182;21.156;2023-11-21T08:52:01;26.70;;;13.83;;
16979;SDS011;42288;52.182;21.156;2023-11-21T08:54:27;25.03;;;12.97;;
16979;SDS011;42288;52.182;21.156;2023-11-21T08:56:53;25.17;;;12.60;;
16979;SDS011;42288;52.182;21.156;2023-11-21T08:59:19;25.90;;;13.67;;
16979;SDS011;42288;52.182;21.156;2023-11-21T09:01:46;28.57;;;14.10;;
16979;SDS011;42288;52.182;21.156;2023-11-21T09:04:12;25.70;;;13.70;;
16979;SDS011;42288;52.182;21.156;2023-11-21T09:06:38;28.07;;;13.90;;
16979;SDS011;42288;52.182;21.156;2023-11-21T09:09:04;25.73;;;13.20;;
16979;SDS011;42288;52.182;21.156;2023-11-21T09:11:31;22.10;;;12.13;;
16979;SDS011;42288;52.182;21.156;2023-11-21T09:13:59;28.13;;;13.60;;
16979;SDS011;42288;52.182;21.156;2023-11-21T09:16:25;26.77;;;13.90;;
16979;SDS011;42288;52.182;21.156;2023-11-21T09:18:52;22.87;;;11.83;;
16979;SDS011;42288;52.182;21.156;2023-11-21T09:21:17;23.23;;;12.67;;
16979;SDS011;42288;52.182;21.156;2023-11-21T09:23:48;24.17;;;12.90;;
16979;SDS011;42288;52.182;21.156;2023-11-21T09:26:14;27.33;;;13.27;;
16979;SDS011;42288;52.182;21.156;2023-11-21T09:28:41;22.37;;;12.47;;
16979;SDS011;42288;52.182;21.156;2023-11-21T09:31:13;23.50;;;13.10;;
16979;SDS011;42288;52.182;21.156;2023-11-21T09:33:40;25.83;;;13.50;;
16979;SDS011;42288;52.182;21.156;2023-11-21T09:36:10;25.33;;;12.63;;
16979;SDS011;42288;52.182;21.156;2023-11-21T09:38:38;21.57;;;12.07;;
16979;SDS011;42288;52.182;21.156;2023-11-21T09:41:04;25.87;;;13.83;;
16979;SDS011;42288;52.182;21.156;2023-11-21T09:43:37;26.37;;;13.50;;
16979;SDS011;42288;52.182;21.156;2023-11-21T09:46:03;24.37;;;13.20;;
16979;SDS011;42288;52.182;21.156;2023-11-21T09:48:35;24.87;;;13.03;;
16979;SDS011;42288;52.182;21.156;2023-11-21T09:51:04;22.90;;;13.17;;
16979;SDS011;42288;52.182;21.156;2023-11-21T09:53:30;25.53;;;12.73;;
16979;SDS011;42288;52.182;21.156;2023-11-21T09:55:59;27.77;;;14.13;;
16979;SDS011;42288;52.182;21.156;2023-11-21T09:58:27;23.33;;;13.00;;
16979;SDS011;42288;52.182;21.156;2023-11-21T10:00:53;20.77;;;11.87;;
16979;SDS011;42288;52.182;21.156;2023-11-21T10:03:21;22.97;;;13.13;;
16979;SDS011;42288;52.182;21.156;2023-11-21T10:05:47;22.97;;;11.67;;
16979;SDS011;42288;52.182;21.156;2023-11-21T10:08:17;22.57;;;12.20;;
16979;SDS011;42288;52.182;21.156;2023-11-21T10:10:45;21.23;;;11.30;;
16979;SDS011;42288;52.182;21.156;2023-11-21T10:13:14;22.27;;;12.80;;
16979;SDS011;42288;52.182;21.156;2023-11-21T10:15:42;27.63;;;14.00;;
16979;SDS011;42288;52.182;21.156;2023-11-21T10:18:13;23.20;;;13.00;;
16979;SDS011;42288;52.182;21.156;2023-11-21T10:20:40;23.20;;;11.67;;
16979;SDS011;42288;52.182;21.156;2023-11-21T10:23:07;21.17;;;12.40;;
16979;SDS011;42288;52.182;21.156;2023-11-21T10:25:36;20.53;;;12.03;;
16979;SDS011;42288;52.182;21.156;2023-11-21T10:28:02;19.90;;;11.10;;
16979;SDS011;42288;52.182;21.156;2023-11-21T10:30:36;19.90;;;11.80;;
16979;SDS011;42288;52.182;21.156;2023-11-21T10:33:05;23.53;;;12.73;;
16979;SDS011;42288;52.182;21.156;2023-11-21T10:35:45;19.40;;;11.23;;
16979;SDS011;42288;52.182;21.156;2023-11-21T10:38:15;22.93;;;12.53;;
16979;SDS011;42288;52.182;21.156;2023-11-21T10:40:42;21.83;;;12.40;;
16979;SDS011;42288;52.182;21.156;2023-11-21T10:43:09;20.50;;;11.93;;
16979;SDS011;42288;52.182;21.156;2023-11-21T10:45:39;23.87;;;11.63;;
16979;SDS011;42288;52.182;21.156;2023-11-21T10:48:06;23.47;;;12.37;;
16979;SDS011;42288;52.182;21.156;2023-11-21T10:50:33;22.47;;;11.60;;
16979;SDS011;42288;52.182;21.156;2023-11-21T10:53:03;18.73;;;11.07;;
16979;SDS011;42288;52.182;21.156;2023-11-21T10:55:30;20.90;;;11.33;;
16979;SDS011;42288;52.182;21.156;2023-11-21T10:57:59;23.13;;;12.03;;
16979;SDS011;42288;52.182;21.156;2023-11-21T11:00:29;22.57;;;12.30;;
16979;SDS011;42288;52.182;21.156;2023-11-21T11:02:56;19.53;;;11.10;;
16979;SDS011;42288;52.182;21.156;2023-11-21T11:05:24;20.13;;;11.60;;
16979;SDS011;42288;52.182;21.156;2023-11-21T11:07:52;23.53;;;12.07;;
16979;SDS011;42288;52.182;21.156;2023-11-21T11:10:27;19.00;;;11.67;;
16979;SDS011;42288;52.182;21.156;2023-11-21T11:12:54;22.67;;;12.70;;
16979;SDS011;42288;52.182;21.156;2023-11-21T11:15:22;22.30;;;12.40;;
16979;SDS011;42288;52.182;21.156;2023-11-21T11:17:48;20.63;;;11.13;;
16979;SDS011;42288;52.182;21.156;2023-11-21T11:20:14;25.80;;;12.43;;
16979;SDS011;42288;52.182;21.156;2023-11-21T11:23:07;20.73;;;11.93;;
16979;SDS011;42288;52.182;21.156;2023-11-21T11:28:10;20.60;;;12.23;;
16979;SDS011;42288;52.182;21.156;2023-11-21T11:30:41;21.77;;;12.60;;
16979;SDS011;42288;52.182;21.156;2023-11-21T11:36:02;23.17;;;12.93;;
16979;SDS011;42288;52.182;21.156;2023-11-21T11:38:33;23.40;;;13.27;;
16979;SDS011;42288;52.182;21.156;2023-11-21T11:41:03;23.63;;;12.13;;
16979;SDS011;42288;52.182;21.156;2023-11-21T11:43:30;22.90;;;13.30;;
16979;SDS011;42288;52.182;21.156;2023-11-21T11:46:09;25.83;;;13.33;;
16979;SDS011;42288;52.182;21.156;2023-11-21T11:48:39;24.57;;;13.20;;
16979;SDS011;42288;52.182;21.156;2023-11-21T11:51:06;24.57;;;13.70;;
16979;SDS011;42288;52.182;21.156;2023-11-21T11:53:35;21.10;;;12.47;;
16979;SDS011;42288;52.182;21.156;2023-11-21T11:58:55;23.17;;;12.60;;
16979;SDS011;42288;52.182;21.156;2023-11-21T12:01:25;21.67;;;11.20;;
16979;SDS011;42288;52.182;21.156;2023-11-21T12:06:36;26.67;;;14.20;;
16979;SDS011;42288;52.182;21.156;2023-11-21T12:09:02;26.03;;;13.27;;
16979;SDS011;42288;52.182;21.156;2023-11-21T12:11:31;21.57;;;12.10;;
16979;SDS011;42288;52.182;21.156;2023-11-21T12:13:57;24.17;;;12.37;;
16979;SDS011;42288;52.182;21.156;2023-11-21T12:16:24;23.20;;;11.77;;
16979;SDS011;42288;52.182;21.156;2023-11-21T12:18:52;24.83;;;13.83;;
16979;SDS011;42288;52.182;21.156;2023-11-21T12:21:19;23.57;;;13.10;;
16979;SDS011;42288;52.182;21.156;2023-11-21T12:23:48;21.57;;;12.40;;
16979;SDS011;42288;52.182;21.156;2023-11-21T12:26:13;22.73;;;12.67;;
16979;SDS011;42288;52.182;21.156;2023-11-21T12:28:39;26.07;;;13.50;;
16979;SDS011;42288;52.182;21.156;2023-11-21T12:31:05;27.27;;;13.37;;
16979;SDS011;42288;52.182;21.156;2023-11-21T12:33:32;25.13;;;13.83;;
16979;SDS011;42288;52.182;21.156;2023-11-21T12:36:00;24.97;;;13.40;;
16979;SDS011;42288;52.182;21.156;2023-11-21T12:38:33;25.80;;;12.67;;
16979;SDS011;42288;52.182;21.156;2023-11-21T12:41:00;24.63;;;13.57;;
16979;SDS011;42288;52.182;21.156;2023-11-21T12:43:25;21.47;;;13.23;;
16979;SDS011;42288;52.182;21.156;2023-11-21T12:45:51;26.27;;;12.90;;
16979;SDS011;42288;52.182;21.156;2023-11-21T12:48:36;22.77;;;12.73;;
16979;SDS011;42288;52.182;21.156;2023-11-21T12:51:12;27.00;;;13.43;;
16979;SDS011;42288;52.182;21.156;2023-11-21T12:53:41;25.47;;;13.03;;
16979;SDS011;42288;52.182;21.156;2023-11-21T12:56:09;22.77;;;11.87;;
16979;SDS011;42288;52.182;21.156;2023-11-21T12:58:39;25.93;;;13.03;;
16979;SDS011;42288;52.182;21.156;2023-11-21T13:01:12;24.33;;;12.87;;
16979;SDS011;42288;52.182;21.156;2023-11-21T13:03:42;26.87;;;14.20;;
16979;SDS011;42288;52.182;21.156;2023-11-21T13:06:10;27.53;;;13.10;;
16979;SDS011;42288;52.182;21.156;2023-11-21T13:08:37;26.47;;;12.97;;
16979;SDS011;42288;52.182;21.156;2023-11-21T13:11:04;24.00;;;12.80;;
16979;SDS011;42288;52.182;21.156;2023-11-21T13:13:31;24.83;;;12.90;;
16979;SDS011;42288;52.182;21.156;2023-11-21T13:15:59;19.73;;;11.87;;
16979;SDS011;42288;52.182;21.156;2023-11-21T13:18:26;23.40;;;12.33;;
16979;SDS011;42288;52.182;21.156;2023-11-21T13:20:57;24.07;;;12.93;;
16979;SDS011;42288;52.182;21.156;2023-11-21T13:23:24;26.80;;;13.20;;
16979;SDS011;42288;52.182;21.156;2023-11-21T13:25:51;25.67;;;13.30;;
16979;SDS011;42288;52.182;21.156;2023-11-21T13:28:19;27.23;;;14.03;;
16979;SDS011;42288;52.182;21.156;2023-11-21T13:30:46;26.50;;;12.60;;
16979;SDS011;42288;52.182;21.156;2023-11-21T13:33:13;26.27;;;13.00;;
16979;SDS011;42288;52.182;21.156;2023-11-21T13:35:42;29.93;;;13.83;;
16979;SDS011;42288;52.182;21.156;2023-11-21T13:38:13;26.73;;;13.67;;
16979;SDS011;42288;52.182;21.156;2023-11-21T13:40:41;26.03;;;13.60;;
16979;SDS011;42288;52.182;21.156;2023-11-21T13:43:14;25.43;;;13.60;;
16979;SDS011;42288;52.182;21.156;2023-11-21T13:45:46;22.50;;;13.00;;
16979;SDS011;42288;52.182;21.156;2023-11-21T13:48:17;26.63;;;13.73;;
16979;SDS011;42288;52.182;21.156;2023-11-21T13:50:50;22.80;;;12.00;;
16979;SDS011;42288;52.182;21.156;2023-11-21T13:53:35;23.67;;;13.00;;
16979;SDS011;42288;52.182;21.156;2023-11-21T13:56:03;23.93;;;13.43;;
16979;SDS011;42288;52.182;21.156;2023-11-21T13:58:29;27.87;;;14.17;;
16979;SDS011;42288;52.182;21.156;2023-11-21T14:01:09;23.73;;;12.97;;
16979;SDS011;42288;52.182;21.156;2023-11-21T14:03:59;24.93;;;13.50;;
16979;SDS011;42288;52.182;21.156;2023-11-21T14:06:50;25.80;;;13.17;;
16979;SDS011;42288;52.182;21.156;2023-11-21T14:09:20;23.33;;;12.53;;
16979;SDS011;42288;52.182;21.156;2023-11-21T14:11:50;24.13;;;13.23;;
16979;SDS011;42288;52.182;21.156;2023-11-21T14:14:21;26.70;;;14.57;;
16979;SDS011;42288;52.182;21.156;2023-11-21T14:16:47;24.73;;;13.90;;
16979;SDS011;42288;52.182;21.156;2023-11-21T14:19:13;29.17;;;16.87;;
16979;SDS011;42288;52.182;21.156;2023-11-21T14:21:41;25.53;;;14.27;;
16979;SDS011;42288;52.182;21.156;2023-11-21T14:24:08;41.73;;;18.97;;